createdAt,value
2022-07-31T00:04:58.719Z,20.20
2022-07-31T00:11:42.849Z,20.10
2022-07-31T00:18:25.225Z,19.90
2022-07-31T00:25:08.253Z,19.50
2022-07-31T00:31:50.999Z,19.70
2022-07-31T00:38:33.671Z,19.50
2022-07-31T00:45:16.656Z,19.30
2022-07-31T00:52:05.273Z,19.20
2022-07-31T00:58:47.819Z,19.30
2022-07-31T01:05:30.671Z,19.30
2022-07-31T01:12:21.023Z,19.00
2022-07-31T01:19:22.464Z,19.10
2022-07-31T01:26:24.501Z,19.10
2022-07-31T01:33:24.071Z,19.10
2022-07-31T01:40:13.362Z,18.90
2022-07-31T01:46:59.127Z,18.90
2022-07-31T01:53:45.483Z,18.60
2022-07-31T02:01:27.530Z,18.50
2022-07-31T02:08:35.263Z,18.50
2022-07-31T02:15:18.973Z,18.50
2022-07-31T02:22:05.066Z,18.50
2022-07-31T02:28:48.790Z,18.40
2022-07-31T02:35:31.510Z,18.50
2022-07-31T02:42:15.504Z,18.50
2022-07-31T02:48:58.824Z,18.50
2022-07-31T02:55:45.202Z,18.40
2022-07-31T03:02:34.629Z,18.40
2022-07-31T03:09:20.805Z,18.40
2022-07-31T03:16:09.627Z,18.40
2022-07-31T03:22:52.065Z,18.30
2022-07-31T03:29:43.702Z,18.30
2022-07-31T03:36:27.203Z,18.20
2022-07-31T03:43:09.947Z,18.20
2022-07-31T03:49:54.407Z,18.10
2022-07-31T03:56:38.117Z,18.20
2022-07-31T04:03:20.859Z,18.10
2022-07-31T04:10:10.022Z,18.10
2022-07-31T04:16:52.448Z,18.20
2022-07-31T04:23:34.830Z,18.20
2022-07-31T04:30:35.871Z,18.20
2022-07-31T04:37:18.695Z,18.40
2022-07-31T04:44:01.258Z,18.50
2022-07-31T04:50:59.978Z,18.80
2022-07-31T04:57:42.454Z,19.10
2022-07-31T05:04:26.400Z,19.30
2022-07-31T05:11:24.664Z,19.60
2022-07-31T05:25:10.464Z,20.50
2022-07-31T05:31:59.386Z,23.90
2022-07-31T05:38:47.885Z,22.80
2022-07-31T05:46:06.152Z,21.90
2022-07-31T05:52:49.970Z,21.20
2022-07-31T05:59:52.575Z,21.10
2022-07-31T06:06:35.711Z,21.30
2022-07-31T06:13:19.053Z,20.90
2022-07-31T06:20:05.656Z,21.20
2022-07-31T06:26:48.101Z,21.50
2022-07-31T06:33:36.973Z,21.20
2022-07-31T06:40:20.727Z,21.40
2022-07-31T06:47:26.425Z,21.80
2022-07-31T06:54:27.564Z,22.00
2022-07-31T07:01:10.734Z,22.20
2022-07-31T07:07:53.180Z,22.60
2022-07-31T07:14:36.050Z,22.50
2022-07-31T07:21:18.676Z,22.40
2022-07-31T07:28:01.150Z,23.10
2022-07-31T07:34:47.077Z,24.20
2022-07-31T07:41:48.034Z,24.60
2022-07-31T07:55:48.964Z,26.20
2022-07-31T08:03:02.729Z,26.90
2022-07-31T08:09:57.252Z,27.00
2022-07-31T08:17:00.569Z,27.60
2022-07-31T08:23:47.315Z,27.80
2022-07-31T08:30:31.376Z,28.70
2022-07-31T08:37:51.850Z,28.90
2022-07-31T08:44:17.569Z,29.80
2022-07-31T08:51:12.529Z,31.60
2022-07-31T08:58:13.479Z,33.60
2022-07-31T09:04:57.048Z,34.90
2022-07-31T09:11:51.154Z,36.00
2022-07-31T09:19:51.213Z,38.80
2022-07-31T09:26:16.645Z,37.20
2022-07-31T09:33:16.363Z,38.30
2022-07-31T09:40:17.888Z,39.10
2022-07-31T09:47:04.785Z,39.00
2022-07-31T09:53:53.140Z,39.30
2022-07-31T10:01:14.879Z,37.60
2022-07-31T10:08:00.037Z,36.10
2022-07-31T10:14:59.475Z,37.30
2022-07-31T10:21:47.311Z,39.50
2022-07-31T10:36:11.356Z,39.80
2022-07-31T10:43:20.224Z,39.30
2022-07-31T10:50:22.135Z,38.00
2022-07-31T10:57:25.508Z,36.10
2022-07-31T11:04:34.734Z,33.20
2022-07-31T11:11:46.344Z,32.70
2022-07-31T11:26:09.681Z,32.90
2022-07-31T11:32:53.420Z,32.80
2022-07-31T11:39:36.805Z,32.10
2022-07-31T11:46:25.931Z,32.30
2022-07-31T11:53:08.382Z,32.00
2022-07-31T11:59:50.781Z,31.50
2022-07-31T12:06:38.473Z,31.80
2022-07-31T12:13:22.505Z,32.30
2022-07-31T12:20:09.562Z,32.70
2022-07-31T12:27:00.501Z,32.20
2022-07-31T12:33:46.674Z,32.20
2022-07-31T12:40:29.076Z,32.40
2022-07-31T12:47:21.047Z,32.10
2022-07-31T12:54:09.387Z,31.80
2022-07-31T13:08:10.735Z,32.00
2022-07-31T13:14:53.095Z,31.10
2022-07-31T13:21:38.640Z,30.60
2022-07-31T13:28:31.055Z,30.50
2022-07-31T13:35:28.061Z,30.50
2022-07-31T13:42:11.307Z,30.70
2022-07-31T13:55:55.427Z,31.10
2022-07-31T14:02:37.994Z,31.50
2022-07-31T14:09:20.775Z,31.20
2022-07-31T14:16:04.484Z,31.00
2022-07-31T14:22:46.903Z,31.20
2022-07-31T14:29:29.247Z,32.10
2022-07-31T14:36:11.615Z,31.30
2022-07-31T14:42:54.059Z,32.10
2022-07-31T14:50:08.042Z,32.30
2022-07-31T14:57:00.211Z,32.10
2022-07-31T15:03:41.399Z,32.10
2022-07-31T15:10:24.004Z,32.30
2022-07-31T15:17:07.571Z,32.10
2022-07-31T15:23:50.284Z,32.50
2022-07-31T15:30:32.683Z,32.90
2022-07-31T15:37:20.489Z,33.20
2022-07-31T15:44:04.746Z,33.00
2022-07-31T15:50:47.238Z,33.00
2022-07-31T15:57:29.776Z,32.70
2022-07-31T16:04:16.746Z,33.00
2022-07-31T16:10:59.568Z,32.70
2022-07-31T16:34:53.294Z,31.80
2022-07-31T16:41:38.748Z,31.70
2022-07-31T16:48:48.076Z,31.30
2022-07-31T16:56:14.505Z,31.30
2022-07-31T17:02:57.078Z,31.30
2022-07-31T17:09:39.736Z,31.50
2022-07-31T17:16:48.410Z,31.60
2022-07-31T17:23:43.504Z,31.50
2022-07-31T17:30:27.299Z,31.10
2022-07-31T17:37:12.236Z,31.00
2022-07-31T17:43:55.024Z,30.90
2022-07-31T17:50:38.587Z,31.00
2022-07-31T17:57:26.393Z,31.00
2022-07-31T18:04:10.772Z,30.80
2022-07-31T18:10:58.489Z,30.70
2022-07-31T18:17:47.038Z,30.60
2022-07-31T18:24:29.634Z,30.50
2022-07-31T18:31:13.931Z,30.50
2022-07-31T18:38:14.882Z,30.30
2022-07-31T18:44:58.238Z,30.20
2022-07-31T18:51:41.085Z,30.10
2022-07-31T18:58:23.955Z,29.90
2022-07-31T19:05:07.496Z,29.60
2022-07-31T19:11:58.813Z,29.40
2022-07-31T19:18:41.834Z,29.10
2022-07-31T19:25:26.674Z,28.90
2022-07-31T19:32:09.332Z,28.70
2022-07-31T19:39:21.779Z,28.40
2022-07-31T19:46:42.431Z,28.20
2022-07-31T19:53:24.964Z,28.00
2022-07-31T20:07:32.534Z,27.60
2022-07-31T20:14:15.560Z,27.30
2022-07-31T20:21:08.091Z,27.00
2022-07-31T20:27:50.704Z,26.80
2022-07-31T20:34:33.311Z,26.60
2022-07-31T20:41:15.839Z,26.20
2022-07-31T20:47:58.388Z,26.10
2022-07-31T20:54:43.543Z,25.90
2022-07-31T21:01:26.323Z,25.80
2022-07-31T21:08:09.106Z,25.60
2022-07-31T21:14:51.637Z,25.50
2022-07-31T21:21:34.923Z,25.30
2022-07-31T21:28:17.851Z,25.30
2022-07-31T21:35:00.722Z,25.20
2022-07-31T21:41:43.470Z,25.00
2022-07-31T21:48:27.087Z,24.90
2022-07-31T21:55:09.939Z,24.70
2022-07-31T22:02:08.399Z,24.70
2022-07-31T22:08:51.012Z,24.60
2022-07-31T22:15:55.607Z,24.50
2022-07-31T22:22:37.252Z,24.50
2022-07-31T22:29:19.847Z,24.60
2022-07-31T22:36:07.201Z,24.50
2022-07-31T22:42:56.145Z,24.40
2022-07-31T22:49:40.713Z,24.30
2022-07-31T22:56:23.406Z,24.20
2022-07-31T23:03:05.971Z,24.00
2022-07-31T23:17:07.119Z,23.70
2022-07-31T23:23:50.806Z,23.60
2022-07-31T23:30:33.330Z,23.50
2022-07-31T23:37:16.009Z,23.50
2022-07-31T23:44:00.195Z,23.50
2022-07-31T23:50:42.961Z,23.50
2022-07-31T23:57:25.496Z,23.50
